»·PEaware :: EJA729 KMMH-KONT

EJA729 :: KMMH-KONT

FLIGHT INFORMATION

Flight Status: Arrived
Operator:
Netjets Aviation
More flights by this operator :: More flights under this callsign
Pilot: Nate M. (12976)
Aircraft: GULFSTREAM G-1159C GULFSTREAM 4
(GLF4)
More flights by this aircraft type
Origin: KMMH Mammoth Yosemite
United States
Destination: KONT Ontario Intl
United States
More flights between these airports :: More routes between these airports
Route: + / FRA154009 TTE OYVEY GLRNO2
File this flight plan on PilotEdge
Remarks:
Altitude:
(Current/Filed)
29,000ft
Speed:
(Current/Filed)
470kts
Departed: 13-Dec-17 03:09 PM
Arrived: 13-Dec-17 04:04 PM
Distance/Time
Traveled:
222nm/0:55
Distance/Time
To Go:
Arrived

Flight Plot

Page will automatically refresh every two minutes.

Flight plan parsing failed; only flown route is shown


Map Options




Map Legend


Flown Route
Filed Route
Departure Airport
Arrival Airport
Navaid (VOR, NDB)
Fix

Horizontal Profiles

Position Reports

Time Latitude Longitude Heading Altitude Ground
Speed
13-Dec-17 14:28 37.626327 -118.842002 281 7135ft 0kts
13-Dec-17 14:29 37.626327 -118.842002 281 7135ft 0kts
13-Dec-17 14:30 37.626327 -118.842002 281 7135ft 0kts
13-Dec-17 14:31 37.626327 -118.842002 281 7135ft 0kts
13-Dec-17 14:32 37.626327 -118.842002 281 7135ft 0kts
13-Dec-17 14:33 37.626327 -118.842002 281 7135ft 0kts
13-Dec-17 14:34 37.626327 -118.842002 281 7135ft 0kts
13-Dec-17 14:35 37.626327 -118.842002 281 7135ft 0kts
13-Dec-17 14:36 37.626327 -118.842002 281 7135ft 0kts
13-Dec-17 14:37 37.626327 -118.842002 281 7135ft 0kts
13-Dec-17 14:38 37.626327 -118.842002 281 7135ft 0kts
13-Dec-17 14:39 37.626327 -118.842002 281 7135ft 0kts
13-Dec-17 14:40 37.626327 -118.842002 281 7135ft 0kts
13-Dec-17 14:41 37.626327 -118.842002 281 7135ft 0kts
13-Dec-17 14:42 37.626327 -118.842002 281 7135ft 0kts
13-Dec-17 14:43 37.626327 -118.842002 281 7135ft 0kts
13-Dec-17 14:44 37.626327 -118.842002 281 7135ft 0kts
13-Dec-17 14:45 37.626327 -118.842002 281 7135ft 0kts
13-Dec-17 14:46 37.626327 -118.842002 281 7135ft 0kts
13-Dec-17 14:47 37.626327 -118.842002 281 7135ft 0kts
13-Dec-17 14:48 37.626327 -118.842002 281 7135ft 0kts
13-Dec-17 14:49 37.626327 -118.842002 281 7135ft 0kts
13-Dec-17 14:50 37.626327 -118.842002 281 7135ft 0kts
13-Dec-17 14:51 37.626327 -118.842002 281 7135ft 0kts
13-Dec-17 14:52 37.626327 -118.842002 281 7135ft 0kts
13-Dec-17 14:53 37.626327 -118.842002 281 7135ft 0kts
13-Dec-17 14:54 37.626327 -118.842002 281 7135ft 0kts
13-Dec-17 14:55 37.626327 -118.842002 281 7135ft 0kts
13-Dec-17 14:56 37.626327 -118.842002 281 7135ft 0kts
13-Dec-17 14:57 37.626327 -118.842002 281 7135ft 0kts
13-Dec-17 14:58 37.626327 -118.842002 281 7135ft 0kts
13-Dec-17 14:59 37.626327 -118.842002 281 7135ft 0kts
13-Dec-17 15:00 37.626327 -118.842002 281 7135ft 0kts
13-Dec-17 15:01 37.626327 -118.842002 281 7135ft 0kts
13-Dec-17 15:02 37.626327 -118.842002 281 7135ft 0kts
13-Dec-17 15:03 37.626327 -118.842002 281 7135ft 0kts
13-Dec-17 15:04 37.626327 -118.842002 281 7135ft 0kts
13-Dec-17 15:05 37.626327 -118.842002 281 7135ft 0kts
13-Dec-17 15:06 37.626327 -118.842002 281 7135ft 0kts
13-Dec-17 15:07 37.626327 -118.842002 281 7135ft 0kts
13-Dec-17 15:08 37.626327 -118.842002 281 7135ft 0kts
13-Dec-17 15:09 37.626327 -118.842002 281 7135ft 0kts
13-Dec-17 15:10 37.626327 -118.842002 281 7135ft 0kts
13-Dec-17 15:11 37.626327 -118.842002 281 7135ft 0kts
13-Dec-17 15:12 37.626327 -118.842002 281 7135ft 0kts
13-Dec-17 15:13 37.624992 -118.838888 108 7135ft 17kts
13-Dec-17 15:14 37.621430 -118.827192 195 7135ft 10kts
13-Dec-17 15:15 37.621288 -118.828699 288 7135ft 54kts
13-Dec-17 15:16 37.616721 -118.885278 205 8619ft 248kts
13-Dec-17 15:17 37.570274 -118.850905 94 11563ft 300kts
13-Dec-17 15:18 37.570274 -118.850905 94 11563ft 300kts
13-Dec-17 15:19 37.567490 -118.782492 93 14311ft 269kts
13-Dec-17 15:20 37.550960 -118.705563 117 17342ft 210kts
13-Dec-17 15:21 37.505112 -118.696840 231 18163ft 231kts
13-Dec-17 15:22 37.467653 -118.758289 232 19605ft 234kts
13-Dec-17 15:23 37.429177 -118.821580 232 21186ft 249kts
13-Dec-17 15:24 37.386203 -118.892226 232 23196ft 329kts
13-Dec-17 15:25 37.336988 -118.973089 232 25305ft 390kts
13-Dec-17 15:26 37.265923 -119.089806 233 27871ft 455kts
13-Dec-17 15:27 37.186432 -119.220305 232 29003ft 513kts
13-Dec-17 15:28 37.117989 -119.332616 232 29000ft 519kts
13-Dec-17 15:29 37.030556 -119.476016 232 29000ft 520kts
13-Dec-17 15:30 37.014175 -119.501242 224 28981ft 518kts
13-Dec-17 15:31 36.891577 -119.531677 157 29019ft 512kts
13-Dec-17 15:32 36.776367 -119.434505 158 29014ft 513kts
13-Dec-17 15:33 36.643971 -119.370415 158 29000ft 516kts
13-Dec-17 15:34 36.540973 -119.320720 158 29000ft 516kts
13-Dec-17 15:35 36.409405 -119.257446 158 29000ft 516kts
13-Dec-17 15:36 36.275789 -119.193422 158 29000ft 516kts
13-Dec-17 15:37 36.142490 -119.129784 158 29000ft 516kts
13-Dec-17 15:38 36.008904 -119.066242 158 29000ft 516kts
13-Dec-17 15:39 35.879893 -118.992527 146 29008ft 515kts
13-Dec-17 15:40 35.755178 -118.914868 168 29011ft 514kts
13-Dec-17 15:41 35.627067 -118.888390 171 29000ft 516kts
13-Dec-17 15:42 35.486319 -118.858136 170 29000ft 516kts
13-Dec-17 15:43 35.354789 -118.800675 147 29004ft 515kts
13-Dec-17 15:44 35.235143 -118.705093 146 29000ft 516kts
13-Dec-17 15:45 35.115941 -118.609057 146 29000ft 516kts
13-Dec-17 15:46 34.996673 -118.512919 146 29000ft 517kts
13-Dec-17 15:47 34.903057 -118.437689 146 28450ft 499kts
13-Dec-17 15:48 34.790479 -118.347489 146 25771ft 485kts
13-Dec-17 15:49 34.696989 -118.232686 132 23101ft 474kts
13-Dec-17 15:50 34.613099 -118.122909 132 22948ft 424kts
13-Dec-17 15:51 34.560655 -117.997857 102 20480ft 430kts
13-Dec-17 15:52 34.537207 -117.862806 101 17503ft 398kts
13-Dec-17 15:53 34.513165 -117.737052 103 14478ft 370kts
13-Dec-17 15:54 34.492002 -117.628536 103 13994ft 303kts
13-Dec-17 15:55 34.461633 -117.534345 110 13492ft 318kts
13-Dec-17 15:56 34.413198 -117.455658 146 12047ft 291kts
13-Dec-17 15:57 34.346567 -117.405254 148 9832ft 284kts
13-Dec-17 15:58 34.279884 -117.356450 148 8016ft 269kts
13-Dec-17 15:59 34.215346 -117.312178 162 7989ft 269kts
13-Dec-17 16:00 34.146490 -117.308528 133 8002ft 230kts
13-Dec-17 16:01 34.118440 -117.256563 121 6113ft 219kts
13-Dec-17 16:02 34.079423 -117.228615 224 5499ft 197kts
13-Dec-17 16:03 34.056406 -117.275892 241 4195ft 198kts
13-Dec-17 16:04 34.052903 -117.327562 275 3992ft 191kts
13-Dec-17 16:05 34.054781 -117.384126 270 3826ft 192kts
13-Dec-17 16:06 34.054819 -117.414400 270 3610ft 190kts
13-Dec-17 16:06 34.054880 -117.463194 270 2937ft 189kts
13-Dec-17 16:08 34.054935 -117.526049 270 1906ft 145kts
13-Dec-17 16:09 34.054954 -117.568763 270 1227ft 161kts
13-Dec-17 16:09 34.054838 -117.601465 254 951ft 30kts

Navigation Log

Ident Type
Flight plan parsing failed, navigation log unavailable